createdAt,value
2022-08-27T16:29:15.767Z,100185.19
2022-08-27T16:31:48.292Z,100189.53
2022-08-27T16:34:25.795Z,100196.78
2022-08-27T16:36:55.745Z,100202.44
2022-08-27T16:39:24.296Z,100204.88
2022-08-27T16:41:52.981Z,100198.31
2022-08-27T16:44:28.631Z,100203.94
2022-08-27T16:47:02.485Z,100198.38
2022-08-27T16:49:56.177Z,100206.47
2022-08-27T16:52:30.502Z,100210.28
2022-08-27T16:55:01.104Z,100208.63
2022-08-27T16:57:29.825Z,100219.31
2022-08-27T17:00:05.071Z,100212.13
2022-08-27T17:02:39.946Z,100218.50
2022-08-27T17:05:34.221Z,100221.69
2022-08-27T17:08:11.572Z,100226.88
2022-08-27T17:10:46.835Z,100229.72
2022-08-27T17:13:30.459Z,100235.66
2022-08-27T17:16:05.050Z,100233.22
2022-08-27T17:18:35.239Z,100242.41
2022-08-27T17:21:04.927Z,100244.09
2022-08-27T17:23:42.159Z,100241.34
2022-08-27T17:26:14.903Z,100255.81
2022-08-27T17:28:47.741Z,100256.00
2022-08-27T17:31:31.207Z,100259.34
2022-08-27T17:34:05.295Z,100250.41
2022-08-27T17:37:03.002Z,100248.72
2022-08-27T17:39:45.974Z,100247.44
2022-08-27T17:42:18.862Z,100256.25
2022-08-27T17:44:47.636Z,100261.19
2022-08-27T17:47:16.681Z,100275.31
2022-08-27T17:49:46.817Z,100274.38
2022-08-27T17:52:18.847Z,100266.31
2022-08-27T17:54:56.639Z,100273.56
2022-08-27T17:57:40.246Z,100260.91
2022-08-27T18:00:14.549Z,100265.25
2022-08-27T18:02:49.790Z,100264.81
2022-08-27T18:05:23.541Z,100256.66
2022-08-27T18:07:59.685Z,100258.97
2022-08-27T18:10:29.420Z,100260.84
2022-08-27T18:12:59.098Z,100255.94
2022-08-27T18:15:30.705Z,100257.22
2022-08-27T18:17:59.808Z,100256.03
2022-08-27T18:20:31.959Z,100260.66
2022-08-27T18:23:01.532Z,100262.41
2022-08-27T18:25:35.944Z,100265.56
2022-08-27T18:28:08.838Z,100269.78
2022-08-27T18:30:39.852Z,100269.00
2022-08-27T18:33:09.220Z,100270.69
2022-08-27T18:35:39.084Z,100270.97
2022-08-27T18:38:07.926Z,100267.59
2022-08-27T18:40:40.331Z,100272.22
2022-08-27T18:43:08.740Z,100271.28
2022-08-27T18:45:38.084Z,100265.53
2022-08-27T18:48:13.650Z,100268.50
2022-08-27T18:50:46.101Z,100268.34
2022-08-27T18:53:17.720Z,100277.88
2022-08-27T18:55:47.087Z,100270.84
2022-08-27T18:58:15.528Z,100275.84
2022-08-27T19:00:48.730Z,100275.84
2022-08-27T19:03:25.411Z,100286.47
2022-08-27T19:05:55.127Z,100290.31
2022-08-27T19:08:25.310Z,100297.03
2022-08-27T19:10:53.394Z,100298.28
